Time;durP1;ratioP1;P1;durP2;ratioP2;P2;SDS_P1;SDS_P2;PMS_P1;PMS_P2;Temp;Humidity;BMP_temperature;BMP_pressure;BME280_temperature;BME280_humidity;BME280_pressure;Samples;Min_cycle;Max_cycle;Signal;HPM_P1;HPM_P2
2023/03/22 00:02:22;;;;;;;;;2.67;2.67;;;;;11.98;100.00;100764.31;5100185;27;46157;-78
2023/03/22 00:04:47;;;;;;;;;3.00;2.00;;;;;11.95;100.00;100760.09;5096476;27;45431;-79
2023/03/22 00:07:13;;;;;;;;;2.33;2.00;;;;;11.82;100.00;100744.47;5098006;27;45341;-78
2023/03/22 00:09:39;;;;;;;;;3.00;3.00;;;;;11.94;100.00;100757.56;5099967;27;45811;-79
2023/03/22 00:12:04;;;;;;;;;3.67;3.67;;;;;11.92;100.00;100746.75;5096414;27;46746;-78
2023/03/22 00:14:30;;;;;;;;;2.33;2.33;;;;;11.90;100.00;100743.41;5098358;27;45453;-78
2023/03/22 00:16:56;;;;;;;;;2.67;2.67;;;;;11.88;100.00;100736.44;5084055;27;45402;-78
2023/03/22 00:19:21;;;;;;;;;2.00;2.00;;;;;11.73;100.00;100710.06;5100949;27;46264;-79
2023/03/22 00:21:47;;;;;;;;;5.00;3.00;;;;;11.78;100.00;100729.50;5099674;27;45372;-79
2023/03/22 00:24:12;;;;;;;;;4.00;3.00;;;;;11.80;100.00;100721.03;5107762;27;45537;-77
2023/03/22 00:26:38;;;;;;;;;2.00;2.00;;;;;11.79;100.00;100731.16;5120293;27;45737;-78
2023/03/22 00:29:03;;;;;;;;;4.67;3.67;;;;;11.72;100.00;100713.88;5094174;27;45583;-78
2023/03/22 00:31:29;;;;;;;;;3.00;3.00;;;;;11.80;100.00;100727.34;5102832;27;46512;-78
2023/03/22 00:33:54;;;;;;;;;3.00;2.00;;;;;11.80;100.00;100726.53;5103679;27;45309;-78
2023/03/22 00:36:20;;;;;;;;;5.67;4.00;;;;;11.78;100.00;100718.50;5103118;27;45568;-78
2023/03/22 00:38:45;;;;;;;;;7.00;3.00;;;;;11.71;100.00;100705.84;5089247;27;45516;-78
2023/03/22 00:41:18;;;;;;;;;4.67;3.67;;;;;11.71;100.00;100708.59;5089995;27;46763;-78
2023/03/22 00:43:45;;;;;;;;;4.67;3.33;;;;;11.60;100.00;100685.38;5112841;27;45366;-78
2023/03/22 00:46:12;;;;;;;;;6.33;3.00;;;;;11.71;100.00;100705.84;5110107;27;45525;-78
2023/03/22 00:48:38;;;;;;;;;1.67;1.67;;;;;11.70;100.00;100699.50;5099599;27;45873;-79
2023/03/22 00:51:03;;;;;;;;;4.67;3.00;;;;;11.66;100.00;100703.72;5099368;27;45420;-78
2023/03/22 00:53:31;;;;;;;;;3.00;3.00;;;;;11.63;100.00;100695.94;5095371;27;45812;-76
2023/03/22 00:55:58;;;;;;;;;3.00;3.00;;;;;11.62;100.00;100694.25;5089685;27;45345;-78
2023/03/22 00:58:25;;;;;;;;;3.67;3.00;;;;;11.58;100.00;100698.50;5086462;27;45752;-79
2023/03/22 01:00:50;;;;;;;;;4.67;2.00;;;;;11.55;100.00;100679.72;5104514;27;46325;-78
2023/03/22 01:03:16;;;;;;;;;4.00;3.00;;;;;11.51;100.00;100690.25;5088225;27;45829;-79
2023/03/22 01:05:45;;;;;;;;;4.67;2.00;;;;;11.33;100.00;100666.25;5102277;27;45439;-77
2023/03/22 01:08:11;;;;;;;;;3.33;3.33;;;;;11.43;100.00;100683.13;5102550;27;46468;-78
2023/03/22 01:10:39;;;;;;;;;3.33;2.00;;;;;11.40;100.00;100680.81;5097403;27;46124;-75
2023/03/22 01:13:06;;;;;;;;;3.00;2.00;;;;;11.41;100.00;100682.50;5092139;27;45363;-77
2023/03/22 01:15:32;;;;;;;;;5.00;2.00;;;;;11.39;100.00;100686.50;5100750;27;45495;-78
2023/03/22 01:17:58;;;;;;;;;5.67;2.67;;;;;11.29;100.00;100665.84;5093675;27;45668;-77
2023/03/22 01:20:24;;;;;;;;;2.00;2.00;;;;;11.38;100.00;100676.59;5099505;27;48275;-77
2023/03/22 01:22:50;;;;;;;;;5.67;4.00;;;;;11.36;100.00;100668.59;5092301;27;45664;-78
2023/03/22 01:25:16;;;;;;;;;5.33;3.00;;;;;11.31;100.00;100660.97;5089172;27;45797;-77
2023/03/22 01:27:41;;;;;;;;;5.00;2.67;;;;;11.34;100.00;100659.69;5102257;27;45227;-78
2023/03/22 01:30:08;;;;;;;;;3.00;1.33;;;;;11.28;100.00;100652.34;5101583;27;46674;-77
2023/03/22 01:32:35;;;;;;;;;3.67;2.67;;;;;11.28;100.00;100655.09;5106926;27;45844;-78
2023/03/22 01:35:00;;;;;;;;;5.33;2.67;;;;;11.25;100.00;100644.53;5099680;27;45426;-78
2023/03/22 01:37:26;;;;;;;;;2.00;2.00;;;;;11.24;100.00;100642.84;5096211;27;45722;-77
2023/03/22 01:39:55;;;;;;;;;5.67;2.00;;;;;11.22;100.00;100642.22;5095424;27;45526;-78
2023/03/22 01:42:22;;;;;;;;;1.00;1.00;;;;;11.21;100.00;100638.66;5092758;27;45828;-78
2023/03/22 01:45:49;;;;;;;;;5.33;2.00;;;;;11.20;100.00;100634.19;5116555;27;45238;-78
2023/03/22 01:48:23;;;;;;;;;3.00;1.33;;;;;11.19;100.00;100629.75;5053197;28;45400;-78
2023/03/22 01:51:08;;;;;;;;;3.00;1.00;;;;;11.18;100.00;100627.22;5056896;28;45405;-76
2023/03/22 01:53:40;;;;;;;;;1.00;1.00;;;;;11.15;100.00;100624.91;5084213;27;45550;-79
2023/03/22 01:56:07;;;;;;;;;4.00;2.00;;;;;11.15;100.00;100625.75;5089708;27;45101;-79
2023/03/22 01:58:35;;;;;;;;;2.00;1.00;;;;;11.14;100.00;100613.09;5110078;27;46797;-78
2023/03/22 02:01:03;;;;;;;;;2.00;1.67;;;;;11.14;100.00;100613.09;5089744;27;47210;-80
2023/03/22 02:03:57;;;;;;;;;1.33;1.33;;;;;11.13;100.00;100609.50;5102047;27;45447;-77
2023/03/22 02:06:25;;;;;;;;;1.00;1.00;;;;;10.99;100.00;100577.69;5102484;27;45440;-78
2023/03/22 02:08:51;;;;;;;;;7.00;2.00;;;;;10.99;100.00;100568.59;5099903;27;45310;-79
2023/03/22 02:11:29;;;;;;;;;2.33;2.00;;;;;11.05;100.00;100579.56;5102270;27;45439;-80
2023/03/22 02:14:10;;;;;;;;;1.50;1.50;;;;;11.07;100.00;100585.66;5087008;27;45521;-80
2023/03/22 02:16:54;;;;;;;;;4.00;2.00;;;;;11.00;100.00;100573.88;5092726;27;45617;-77
2023/03/22 02:19:47;;;;;;;;;3.67;2.00;;;;;10.94;100.00;100563.75;5098727;27;45735;-78
2023/03/22 02:22:51;;;;;;;;;1.00;1.00;;;;;11.05;100.00;100581.47;5088868;27;46987;-78
2023/03/22 02:26:14;;;;;;;;;4.67;2.00;;;;;11.06;100.00;100586.75;5098531;27;45573;-79
2023/03/22 02:29:02;;;;;;;;;3.00;2.33;;;;;11.00;100.00;100568.38;5063675;28;45783;-78
2023/03/22 02:31:36;;;;;;;;;4.00;3.00;;;;;11.03;100.00;100580.84;5070066;27;47415;-77
2023/03/22 02:34:29;;;;;;;;;4.00;2.00;;;;;11.02;100.00;100571.78;5094531;27;45824;-78
2023/03/22 02:37:10;;;;;;;;;2.33;1.00;;;;;11.02;100.00;100570.91;5101095;27;45618;-79
2023/03/22 02:39:46;;;;;;;;;3.67;2.33;;;;;10.99;100.00;100569.47;5098385;27;45482;-78
2023/03/22 02:42:41;;;;;;;;;3.67;2.00;;;;;11.04;100.00;100572.38;5101491;27;45391;-77
2023/03/22 02:45:18;;;;;;;;;3.33;1.00;;;;;11.01;100.00;100567.31;5089253;27;46003;-77
2023/03/22 02:47:57;;;;;;;;;1.67;1.00;;;;;11.03;100.00;100578.94;5101597;27;45733;-78
2023/03/22 02:50:29;;;;;;;;;5.00;2.00;;;;;11.00;100.00;100575.78;5086566;27;45365;-78
2023/03/22 02:52:59;;;;;;;;;2.00;2.00;;;;;11.05;100.00;100576.81;5097930;27;45414;-77
2023/03/22 02:55:30;;;;;;;;;3.00;2.00;;;;;11.06;100.00;100581.25;5102623;27;45393;-76
2023/03/22 02:58:14;;;;;;;;;1.33;1.33;;;;;11.08;100.00;100581.88;5087703;27;45333;-77
2023/03/22 03:00:41;;;;;;;;;2.00;1.33;;;;;11.18;100.00;100586.06;5104768;27;45350;-78
2023/03/22 03:03:11;;;;;;;;;4.00;2.33;;;;;11.29;100.00;100593.63;5097879;27;45352;-78
2023/03/22 03:05:40;;;;;;;;;1.67;1.67;;;;;11.40;100.00;100584.69;5100499;27;46015;-79
2023/03/22 03:08:09;;;;;;;;;5.00;2.33;;;;;11.42;100.00;100563.38;5092378;27;45492;-78
2023/03/22 03:10:34;;;;;;;;;5.00;2.00;;;;;11.61;100.00;100588.19;5092965;27;45578;-77
2023/03/22 03:13:00;;;;;;;;;5.00;1.67;;;;;11.68;100.00;100590.88;5097485;27;45634;-77
2023/03/22 03:15:25;;;;;;;;;3.67;2.33;;;;;11.76;100.00;100582.41;5101331;27;47258;-76
2023/03/22 03:18:16;;;;;;;;;1.67;1.67;;;;;11.84;100.00;100579.38;5102995;27;45534;-78
2023/03/22 03:21:17;;;;;;;;;3.67;2.67;;;;;11.89;100.00;100576.00;5101605;27;45386;-78
2023/03/22 03:23:55;;;;;;;;;3.00;3.00;;;;;11.91;100.00;100574.69;5072869;27;45323;-78
2023/03/22 03:26:35;;;;;;;;;1.67;1.67;;;;;11.96;100.00;100576.78;5095352;27;45812;-77
2023/03/22 03:29:09;;;;;;;;;3.33;0.00;;;;;12.01;100.00;100566.81;5092796;27;45402;-79
2023/03/22 03:31:43;;;;;;;;;3.00;1.00;;;;;12.04;100.00;100571.03;5086155;27;45459;-78
2023/03/22 03:34:42;;;;;;;;;2.67;2.67;;;;;12.08;100.00;100565.91;5096782;27;46695;-76
2023/03/22 03:37:17;;;;;;;;;2.33;2.00;;;;;12.11;100.00;100560.84;5089575;27;47635;-77
2023/03/22 03:39:49;;;;;;;;;1.00;1.00;;;;;12.13;100.00;100564.19;5096841;27;45242;-77
2023/03/22 03:42:17;;;;;;;;;2.00;2.00;;;;;12.17;100.00;100568.19;5087615;27;45742;-76
2023/03/22 03:44:44;;;;;;;;;4.33;2.00;;;;;12.16;100.00;100555.50;5095571;27;45680;-77
2023/03/22 03:47:11;;;;;;;;;3.33;2.00;;;;;12.18;100.00;100550.63;5087228;27;47369;-76
2023/03/22 03:49:36;;;;;;;;;5.33;3.33;;;;;12.24;100.00;100556.28;5093246;27;45261;-78
2023/03/22 03:52:04;;;;;;;;;3.00;2.00;;;;;12.25;100.00;100558.81;5095012;27;45372;-77
2023/03/22 03:54:29;;;;;;;;;2.00;1.00;;;;;12.24;100.00;100551.63;5087027;27;46072;-77
2023/03/22 03:56:55;;;;;;;;;3.00;2.00;;;;;12.30;100.00;100560.88;5098770;27;45281;-76
2023/03/22 03:59:20;;;;;;;;;3.00;1.00;;;;;12.32;100.00;100556.00;5096463;27;45402;-76
2023/03/22 04:01:51;;;;;;;;;0.33;0.33;;;;;12.33;100.00;100568.69;5093038;27;45526;-76
2023/03/22 04:04:24;;;;;;;;;3.00;2.00;;;;;12.35;100.00;100578.41;5120165;27;45625;-78
2023/03/22 04:06:55;;;;;;;;;3.00;2.00;;;;;12.36;100.00;100571.84;5114789;27;47502;-77
2023/03/22 04:09:26;;;;;;;;;1.00;1.00;;;;;12.36;100.00;100573.72;5105205;27;45439;-78
2023/03/22 04:11:52;;;;;;;;;2.00;2.00;;;;;12.35;100.00;100564.66;5101630;27;44762;-77
2023/03/22 04:14:18;;;;;;;;;4.00;1.67;;;;;12.31;100.00;100551.56;5090701;27;44787;-79
2023/03/22 04:16:44;;;;;;;;;1.00;1.00;;;;;12.25;100.00;100539.56;5118302;27;46330;-78
2023/03/22 04:19:09;;;;;;;;;2.67;1.33;;;;;12.28;100.00;100541.88;5097137;27;45416;-78
2023/03/22 04:21:35;;;;;;;;;2.67;1.00;;;;;12.19;100.00;100544.03;5100977;27;45561;-79
2023/03/22 04:24:01;;;;;;;;;3.33;0.67;;;;;12.31;100.00;100551.56;5103615;27;45505;-79
2023/03/22 04:26:26;;;;;;;;;3.67;1.00;;;;;12.18;100.00;100523.13;5107054;27;47782;-78
2023/03/22 04:28:52;;;;;;;;;2.33;1.00;;;;;12.33;100.00;100541.19;5094887;27;45639;-77
2023/03/22 04:31:17;;;;;;;;;1.67;1.33;;;;;12.34;100.00;100534.63;5102948;27;45607;-76
2023/03/22 04:33:45;;;;;;;;;4.00;1.00;;;;;12.33;100.00;100533.75;5105470;27;45304;-75
2023/03/22 04:36:16;;;;;;;;;3.67;0.00;;;;;12.38;100.00;100543.25;5098067;27;46208;-77
2023/03/22 04:38:42;;;;;;;;;0.33;0.33;;;;;12.37;100.00;100534.16;5097504;27;45716;-75
2023/03/22 04:41:08;;;;;;;;;2.00;0.67;;;;;12.22;100.00;100511.69;5088078;27;45345;-76
2023/03/22 04:43:34;;;;;;;;;2.33;1.00;;;;;12.33;100.00;100533.75;5094125;27;46092;-76
2023/03/22 04:46:03;;;;;;;;;2.33;0.67;;;;;12.38;100.00;100546.00;5091188;27;46353;-77
2023/03/22 04:48:29;;;;;;;;;1.67;0.67;;;;;12.39;100.00;100537.53;5086716;27;45778;-75
2023/03/22 04:50:55;;;;;;;;;0.00;0.00;;;;;12.38;100.00;100541.38;5107193;27;45415;-77
2023/03/22 04:53:26;;;;;;;;;0.67;0.67;;;;;12.38;100.00;100538.63;5094155;27;45430;-78
2023/03/22 04:55:56;;;;;;;;;2.00;0.00;;;;;12.32;100.00;100521.09;5096013;27;47815;-78
2023/03/22 04:58:23;;;;;;;;;4.00;1.00;;;;;12.36;100.00;100526.97;5109965;27;46276;-77
2023/03/22 05:00:51;;;;;;;;;0.00;0.00;;;;;12.19;100.00;100513.81;5086994;27;45339;-78
2023/03/22 05:03:20;;;;;;;;;2.33;1.00;;;;;12.10;100.00;100501.41;5086317;27;45383;-80
2023/03/22 05:05:51;;;;;;;;;3.00;0.00;;;;;12.13;100.00;100514.72;5111792;27;48079;-80
2023/03/22 05:08:17;;;;;;;;;3.00;1.33;;;;;12.03;100.00;100519.88;5097293;27;45392;-79
2023/03/22 05:10:43;;;;;;;;;2.00;1.00;;;;;11.90;100.00;100497.97;5109279;27;45115;-79
2023/03/22 05:13:08;;;;;;;;;2.67;1.33;;;;;11.88;100.00;100517.41;5106215;27;45744;-78
2023/03/22 05:15:34;;;;;;;;;4.00;2.00;;;;;11.79;100.00;100519.59;5099134;27;45486;-76
2023/03/22 05:17:59;;;;;;;;;1.00;1.00;;;;;11.83;100.00;100533.75;5092474;27;45771;-70
2023/03/22 05:20:25;;;;;;;;;0.00;0.00;;;;;11.81;100.00;100520.22;5095097;27;45716;-71
2023/03/22 05:22:55;;;;;;;;;3.00;1.00;;;;;11.77;100.00;100513.50;5095725;27;45968;-68
2023/03/22 05:25:21;;;;;;;;;1.67;1.33;;;;;11.95;100.00;100514.66;5087068;27;47945;-71
2023/03/22 05:27:49;;;;;;;;;2.33;2.00;;;;;11.99;100.00;100524.13;5092360;27;45405;-73
2023/03/22 05:30:18;;;;;;;;;2.00;1.00;;;;;12.00;100.00;100520.31;5095891;27;45733;-71
2023/03/22 05:32:43;;;;;;;;;0.67;0.67;;;;;12.05;100.00;100517.75;5079177;27;45641;-69
2023/03/22 05:35:12;;;;;;;;;6.00;3.00;;;;;12.06;100.00;100522.16;5080985;27;45694;-69
2023/03/22 05:37:38;;;;;;;;;3.33;2.67;;;;;12.10;100.00;100534.41;5086438;27;45702;-71
2023/03/22 05:40:08;;;;;;;;;4.00;3.00;;;;;12.15;100.00;100537.31;5095245;27;45749;-70
2023/03/22 05:42:35;;;;;;;;;1.33;1.33;;;;;12.18;100.00;100544.28;5091555;27;45640;-73
2023/03/22 05:45:01;;;;;;;;;7.00;4.67;;;;;12.24;100.00;100542.53;5090063;27;46731;-72
2023/03/22 05:47:26;;;;;;;;;2.00;2.00;;;;;12.25;100.00;100541.47;5094633;27;45585;-72
2023/03/22 05:49:52;;;;;;;;;1.33;1.33;;;;;12.30;100.00;100538.88;5092892;27;46007;-76
2023/03/22 05:52:17;;;;;;;;;1.50;0.50;;;;;12.41;100.00;100534.53;5109393;27;46572;-67
2023/03/22 05:54:43;;;;;;;;;3.00;1.67;;;;;12.52;100.00;100533.81;5087648;27;45672;-66
2023/03/22 05:57:09;;;;;;;;;2.33;0.67;;;;;12.64;100.00;100540.25;5096736;27;45560;-68
2023/03/22 05:59:35;;;;;;;;;0.00;0.00;;;;;12.67;100.00;100526.03;5097545;27;45878;-67
2023/03/22 06:02:01;;;;;;;;;4.00;3.00;;;;;12.74;100.00;100523.22;5090692;27;45790;-68
2023/03/22 06:04:26;;;;;;;;;2.00;1.33;;;;;12.82;100.00;100524.81;5097361;27;48564;-73
2023/03/22 06:06:52;;;;;;;;;3.00;2.00;;;;;12.87;100.00;100506.56;5091415;27;45675;-69
2023/03/22 06:09:18;;;;;;;;;3.33;0.67;;;;;12.96;100.00;100522.75;5093639;27;45914;-69
2023/03/22 06:11:44;;;;;;;;;4.67;4.00;;;;;12.99;100.00;100522.28;5088125;27;46024;-69
2023/03/22 06:14:09;;;;;;;;;3.33;2.00;;;;;13.01;100.00;100522.91;5083592;27;46102;-67
2023/03/22 06:16:35;;;;;;;;;2.00;1.67;;;;;13.00;100.00;100523.97;5078917;27;45282;-73
2023/03/22 06:19:00;;;;;;;;;4.00;1.33;;;;;12.98;100.00;100531.59;5085661;27;45701;-71
2023/03/22 06:21:25;;;;;;;;;6.00;4.00;;;;;13.00;100.00;100534.97;5088074;27;45671;-72
2023/03/22 06:23:51;;;;;;;;;3.67;3.67;;;;;12.99;100.00;100533.28;5088454;27;46076;-72
2023/03/22 06:26:16;;;;;;;;;5.33;3.00;;;;;13.04;100.00;100531.53;5083093;27;45533;-72
2023/03/22 06:28:42;;;;;;;;;2.33;2.00;;;;;13.03;100.00;100540.84;5089204;27;45439;-71
2023/03/22 06:31:09;;;;;;;;;3.33;2.67;;;;;13.04;100.00;100550.81;5089044;27;45379;-72
2023/03/22 06:33:36;;;;;;;;;2.33;0.67;;;;;13.02;100.00;100555.72;5079618;27;45664;-74
2023/03/22 06:36:02;;;;;;;;;2.33;1.33;;;;;13.06;100.00;100559.66;5079528;27;45789;-66
2023/03/22 06:38:29;;;;;;;;;3.67;2.67;;;;;13.04;100.00;100561.81;5082027;27;45424;-71
2023/03/22 06:40:57;;;;;;;;;2.67;2.67;;;;;12.99;100.00;100558.06;5077122;27;45829;-72
2023/03/22 06:43:23;;;;;;;;;4.33;2.67;;;;;13.02;100.00;100568.63;5080235;27;46377;-73
2023/03/22 06:45:52;;;;;;;;;4.00;2.67;;;;;13.06;100.00;100576.19;5080511;27;45401;-71
2023/03/22 06:48:17;;;;;;;;;4.67;3.00;;;;;13.08;100.00;100573.19;5078554;27;45610;-72
2023/03/22 06:50:44;;;;;;;;;3.33;3.33;;;;;13.05;100.00;100560.75;5087183;27;45415;-70
2023/03/22 06:53:09;;;;;;;;;2.67;2.67;;;;;13.07;100.00;100563.28;5111657;27;45878;-73
2023/03/22 06:55:38;;;;;;;;;3.33;2.00;;;;;13.19;100.00;100579.88;5100534;27;45386;-71
2023/03/22 06:58:04;;;;;;;;;3.00;3.00;;;;;13.20;100.00;100578.78;5103658;27;45801;-73
2023/03/22 07:00:33;;;;;;;;;3.33;2.00;;;;;13.18;100.00;100584.53;5097399;27;45898;-74
2023/03/22 07:02:59;;;;;;;;;5.00;3.00;;;;;13.21;100.00;100586.81;5104556;27;47363;-72
2023/03/22 07:05:25;;;;;;;;;5.67;4.67;;;;;13.25;100.00;100574.28;5101695;27;45349;-74
2023/03/22 07:07:51;;;;;;;;;3.67;2.67;;;;;13.23;100.00;100572.81;5093758;27;45609;-72
2023/03/22 07:10:16;;;;;;;;;4.00;3.00;;;;;13.29;100.00;100574.63;5090572;27;45881;-72
2023/03/22 07:12:42;;;;;;;;;1.00;1.00;;;;;13.33;100.00;100575.88;5090730;27;46334;-72
2023/03/22 07:15:18;;;;;;;;;5.33;5.00;;;;;13.37;100.00;100582.63;5097296;27;45750;-79
2023/03/22 07:17:44;;;;;;;;;3.00;3.00;;;;;13.41;100.00;100577.50;5102681;27;45530;-79
2023/03/22 07:20:10;;;;;;;;;4.00;3.33;;;;;13.48;100.00;100575.50;5114611;27;45772;-78
2023/03/22 07:22:35;;;;;;;;;6.00;3.67;;;;;13.48;100.00;100572.75;5100746;27;46520;-78
2023/03/22 07:25:01;;;;;;;;;4.00;4.00;;;;;13.54;100.00;100580.06;5089489;27;45433;-79
2023/03/22 07:27:26;;;;;;;;;3.67;3.67;;;;;13.55;100.00;100584.50;5090864;27;45463;-80
2023/03/22 07:29:52;;;;;;;;;4.00;4.00;;;;;13.57;100.00;100576.84;5098383;27;45627;-76
2023/03/22 07:32:17;;;;;;;;;5.00;3.33;;;;;13.57;100.00;100568.59;5096485;27;45616;-78
2023/03/22 07:34:43;;;;;;;;;5.00;3.00;;;;;13.55;100.00;100562.47;5095138;27;46083;-78
2023/03/22 07:37:08;;;;;;;;;4.33;3.00;;;;;13.60;100.00;100570.88;5112335;27;45724;-78
2023/03/22 07:39:34;;;;;;;;;3.00;1.67;;;;;13.66;100.00;100573.78;5095023;27;45538;-76
2023/03/22 07:41:59;;;;;;;;;3.67;1.67;;;;;13.71;100.00;100573.91;5094887;27;45868;-78
2023/03/22 07:44:25;;;;;;;;;1.67;1.67;;;;;13.73;100.00;100585.56;5081967;27;46339;-79
2023/03/22 07:46:51;;;;;;;;;4.33;3.00;;;;;13.69;100.00;100574.13;5090111;27;45580;-78
2023/03/22 07:49:17;;;;;;;;;5.33;3.33;;;;;13.57;100.00;100567.75;5094276;27;45859;-78
2023/03/22 07:51:42;;;;;;;;;5.00;3.67;;;;;13.65;100.00;100581.19;5095102;27;45831;-78
2023/03/22 07:54:08;;;;;;;;;5.00;3.33;;;;;13.65;100.00;100596.88;5096009;27;45944;-79
2023/03/22 07:56:34;;;;;;;;;2.00;1.00;;;;;13.62;100.00;100581.66;5101015;22;45996;-80
2023/03/22 07:58:59;;;;;;;;;7.00;2.33;;;;;13.64;100.00;100576.78;5071986;27;45814;-79
2023/03/22 08:01:24;;;;;;;;;2.67;1.33;;;;;13.58;100.00;100567.50;5071133;28;45634;-78
2023/03/22 08:03:51;;;;;;;;;3.33;3.33;;;;;13.70;100.00;100570.31;5063513;28;45483;-81
2023/03/22 08:06:18;;;;;;;;;5.67;1.67;;;;;13.84;100.00;100573.72;5067711;28;45584;-80
2023/03/22 08:08:45;;;;;;;;;5.00;3.67;;;;;13.94;100.00;100578.66;5062701;27;45725;-80
2023/03/22 08:11:11;;;;;;;;;3.67;2.33;;;;;14.03;100.00;100585.53;5069033;28;45774;-80
2023/03/22 08:13:38;;;;;;;;;3.00;3.00;;;;;14.06;100.00;100571.25;5074787;28;45353;-81
2023/03/22 08:16:05;;;;;;;;;4.00;3.00;;;;;14.22;100.00;100591.81;5069698;27;45796;-81
2023/03/22 08:18:31;;;;;;;;;4.33;2.00;;;;;14.22;100.00;100583.53;5054442;28;45620;-78
2023/03/22 08:20:58;;;;;;;;;5.00;2.67;;;;;14.23;100.00;100585.19;5069687;28;45620;-81
2023/03/22 08:23:25;;;;;;;;;4.33;3.00;;;;;14.25;100.00;100583.06;5072199;27;45287;-81
2023/03/22 08:25:51;;;;;;;;;2.67;2.67;;;;;14.31;100.00;100597.78;5073928;27;45595;-81
2023/03/22 08:28:17;;;;;;;;;5.67;3.33;;;;;14.28;100.00;100601.88;5063491;28;46386;-79
2023/03/22 08:30:47;;;;;;;;;2.67;2.67;;;;;14.20;100.00;100580.16;5065312;28;45648;-81
2023/03/22 08:33:14;;;;;;;;;3.33;2.67;;;;;14.14;100.00;100586.63;5072161;28;45948;-81
2023/03/22 08:35:40;;;;;;;;;5.33;2.00;;;;;14.07;100.00;100581.22;5068122;28;45321;-81
2023/03/22 08:38:06;;;;;;;;;5.67;2.00;;;;;14.04;100.00;100584.47;5063497;27;45802;-80
2023/03/22 08:40:32;;;;;;;;;4.00;3.00;;;;;14.07;100.00;100580.38;5070433;28;46262;-81
2023/03/22 08:42:58;;;;;;;;;3.00;3.00;;;;;14.13;100.00;100590.44;5072918;27;45514;-80
2023/03/22 08:45:25;;;;;;;;;3.67;3.00;;;;;14.17;100.00;100590.84;5085641;27;45511;-81
2023/03/22 08:47:50;;;;;;;;;4.00;3.00;;;;;14.18;100.00;100593.34;5067154;28;45765;-80
2023/03/22 08:50:16;;;;;;;;;3.67;2.33;;;;;14.18;100.00;100596.09;5068780;28;48181;-82
2023/03/22 08:52:42;;;;;;;;;3.33;3.33;;;;;14.15;100.00;100588.31;5068583;27;45518;-82
2023/03/22 08:55:08;;;;;;;;;4.33;3.00;;;;;14.19;100.00;100578.50;5073373;27;45800;-81
2023/03/22 08:57:35;;;;;;;;;3.00;2.00;;;;;14.20;100.00;100585.66;5069639;28;47287;-80
2023/03/22 09:00:03;;;;;;;;;4.00;3.00;;;;;14.06;100.00;100574.03;5074232;27;46118;-80
2023/03/22 09:02:28;;;;;;;;;4.33;2.67;;;;;14.09;100.00;100581.00;5063927;27;45405;-80
2023/03/22 09:04:54;;;;;;;;;1.67;1.67;;;;;13.99;100.00;100570.53;5073347;28;45716;-77
2023/03/22 09:07:20;;;;;;;;;3.67;2.67;;;;;13.97;100.00;100577.34;5091725;27;47029;-78
2023/03/22 09:09:46;;;;;;;;;2.00;2.00;;;;;13.93;100.00;100566.78;5073720;28;47887;-80
2023/03/22 09:12:11;;;;;;;;;3.67;2.67;;;;;13.80;100.00;100564.22;5071450;28;46293;-81
2023/03/22 09:14:37;;;;;;;;;2.33;2.00;;;;;13.88;100.00;100569.41;5075051;27;45835;-79
2023/03/22 09:17:03;;;;;;;;;8.00;4.00;;;;;13.94;100.00;100576.75;5088651;27;45777;-81
2023/03/22 09:19:28;;;;;;;;;3.00;3.00;;;;;13.94;100.00;100589.69;5071249;28;46646;-80
2023/03/22 09:21:55;;;;;;;;;3.67;2.67;;;;;13.92;100.00;100589.94;5075150;27;45452;-80
2023/03/22 09:24:20;;;;;;;;;5.00;4.67;;;;;13.88;100.00;100576.84;5092083;27;45362;-81
2023/03/22 09:26:46;;;;;;;;;4.00;3.00;;;;;13.99;100.00;100580.72;5074067;28;45682;-79
2023/03/22 09:29:12;;;;;;;;;3.00;1.67;;;;;13.98;100.00;100576.28;5075951;27;48169;-80
2023/03/22 09:31:38;;;;;;;;;2.33;2.00;;;;;14.03;100.00;100571.75;5056396;28;46010;-81
2023/03/22 09:34:03;;;;;;;;;3.67;3.33;;;;;14.08;100.00;100560.00;5070643;28;45646;-80
2023/03/22 09:36:31;;;;;;;;;3.00;3.00;;;;;14.12;100.00;100566.72;5074207;28;45827;-80
2023/03/22 09:38:58;;;;;;;;;5.33;3.67;;;;;14.18;100.00;100565.78;5075663;27;45558;-80
2023/03/22 09:41:34;;;;;;;;;5.33;4.00;;;;;14.25;100.00;100562.88;5070788;28;45423;-79
2023/03/22 09:44:04;;;;;;;;;6.33;3.33;;;;;14.41;100.00;100559.44;5061753;28;45718;-79
2023/03/22 09:46:40;;;;;;;;;5.00;2.33;;;;;14.48;100.00;100551.03;5073887;27;45492;-79
2023/03/22 09:49:19;;;;;;;;;6.00;2.00;;;;;14.53;100.00;100556.66;5074988;27;45597;-81
2023/03/22 09:51:53;;;;;;;;;8.67;3.67;;;;;14.50;100.00;100551.63;5072041;28;45422;-81
2023/03/22 09:54:37;;;;;;;;;3.00;3.00;;;;;14.45;100.00;100537.72;5060294;28;44854;-80
2023/03/22 09:57:27;;;;;;;;;1.67;0.00;;;;;14.50;100.00;100534.25;5058291;28;45531;-79
2023/03/22 10:00:11;;;;;;;;;1.67;1.67;;;;;14.55;100.00;100537.97;5071559;28;48112;-80
2023/03/22 10:02:56;;;;;;;;;6.00;4.67;;;;;14.51;100.00;100520.22;5074981;27;45708;-82
2023/03/22 10:05:39;;;;;;;;;4.00;3.00;;;;;14.52;100.00;100519.13;5070143;28;45409;-83
2023/03/22 10:08:24;;;;;;;;;3.00;2.33;;;;;14.51;100.00;100530.41;5074265;27;45840;-80
2023/03/22 10:10:51;;;;;;;;;5.67;3.33;;;;;14.59;100.00;100527.28;5068337;28;45812;-81
2023/03/22 10:13:39;;;;;;;;;4.00;4.00;;;;;14.69;100.00;100532.25;5075696;27;45398;-84
2023/03/22 10:16:11;;;;;;;;;4.67;3.67;;;;;14.79;100.00;100529.69;5071319;27;45728;-80
2023/03/22 10:18:51;;;;;;;;;3.00;3.00;;;;;14.79;100.00;100537.97;5060555;28;45481;-79
2023/03/22 10:21:18;;;;;;;;;4.33;3.00;;;;;14.74;100.00;100530.41;5073394;27;45526;-78
2023/03/22 10:23:54;;;;;;;;;4.33;3.00;;;;;14.73;100.00;100516.84;5073378;27;45820;-78
2023/03/22 10:26:29;;;;;;;;;4.67;3.00;;;;;14.69;100.00;100502.69;5071199;27;45354;-79
2023/03/22 10:29:04;;;;;;;;;4.67;3.00;;;;;14.85;100.00;100508.53;5073342;27;45686;-78
2023/03/22 10:31:32;;;;;;;;;9.00;5.00;;;;;14.85;100.00;100478.19;5068034;28;47555;-79
2023/03/22 10:34:10;;;;;;;;;4.00;4.00;;;;;14.90;100.00;100481.06;5063915;28;45477;-80
2023/03/22 10:36:39;;;;;;;;;5.67;4.00;;;;;15.05;100.00;100519.22;5060986;28;45836;-77
2023/03/22 10:39:35;;;;;;;;;10.00;5.33;;;;;15.08;100.00;100514.03;5073234;28;45641;-79
2023/03/22 10:42:10;;;;;;;;;3.67;3.33;;;;;15.13;100.00;100510.53;5062778;28;46786;-80
2023/03/22 10:44:53;;;;;;;;;5.00;4.00;;;;;15.11;100.00;100499.72;5057547;28;45397;-79
2023/03/22 10:47:46;;;;;;;;;6.67;3.33;;;;;15.10;100.00;100499.97;5058715;28;45827;-83
2023/03/22 10:50:21;;;;;;;;;7.00;5.00;;;;;15.14;100.00;100495.63;5067895;28;45610;-81
2023/03/22 10:53:11;;;;;;;;;2.00;2.00;;;;;15.13;100.00;100503.06;5081522;27;45647;-80
2023/03/22 10:55:42;;;;;;;;;8.00;3.67;;;;;15.11;100.00;100493.38;5073415;28;45768;-80
2023/03/22 10:58:19;;;;;;;;;2.33;2.33;;;;;15.16;100.00;100482.41;5073078;28;45401;-80
2023/03/22 11:00:48;;;;;;;;;5.00;4.00;;;;;15.39;100.00;100483.38;5074142;28;46681;-82
2023/03/22 11:03:35;;;;;;;;;1.67;1.67;;;;;15.70;100.00;100491.19;5074826;27;45504;-82
2023/03/22 11:06:06;;;;;;;;;5.00;2.33;;;;;15.96;100.00;100486.09;5075542;27;45756;-82
2023/03/22 11:09:00;;;;;;;;;5.33;3.00;;;;;16.17;100.00;100483.69;5069606;27;45485;-81
2023/03/22 11:11:44;;;;;;;;;4.33;4.00;;;;;16.40;100.00;100483.44;5068123;28;45469;-81
2023/03/22 11:14:25;;;;;;;;;4.67;3.00;;;;;16.70;100.00;100496.06;5062702;28;45844;-81
2023/03/22 11:17:06;;;;;;;;;5.33;3.67;;;;;16.87;100.00;100497.97;5065975;28;45773;-80
2023/03/22 11:19:38;;;;;;;;;4.67;3.00;;;;;17.01;100.00;100490.97;5066028;28;46228;-81
2023/03/22 11:22:06;;;;;;;;;4.00;2.67;;;;;17.11;100.00;100468.06;5068657;27;46443;-81
2023/03/22 11:24:33;;;;;;;;;5.00;2.00;;;;;17.37;100.00;100477.50;5059626;28;45611;-80
2023/03/22 11:27:24;;;;;;;;;6.33;3.00;;;;;17.33;100.00;100486.59;5046079;28;45547;-81
2023/03/22 11:29:53;;;;;;;;;5.67;2.67;;;;;17.40;100.00;100482.53;5060161;28;45747;-78
2023/03/22 11:32:31;;;;;;;;;6.33;5.00;;;;;17.40;100.00;100482.53;5052196;28;45620;-80